Airfield :
LOGIN :

Register | Disclaimer

   EN    FR    IT 

 










Legend :    VFR   Marginal VFR   IFR   Intensive IFR   Very Intensive IFR
Visi :
Ceiling :
>= 8 km
>= 3000ft
5 to 8 km
1000 to 3000 ft
1500m to 5 km
500 to 1000 ft
800 to 1500m
200 to 500 ft
< 800m
< 200 ft
Symbols :   Thunderstorms  Fog  Heavy snow  Heavy precipitations  Wind > 20 kt
SIGMETs :     Misc.  Thunderstorms  Icing  Turbulence  Mountain Waves  Volcanic Ashes






- Airport Elevation : 9 ft
- IATA code : MIR


DTMB - Habib Bourguliba Int. Monastir

CURRENT METAR :
  • 300400Z 28006KT 9999 FEW020 11/10 Q1012

EXPIRED METARs :
  • 300330Z 25006KT 9999 FEW020 10/09 Q1012
  • 300300Z 30010KT 9999 FEW020 11/10 Q1012
  • 300230Z 28007KT 1000 NSC 11/09 Q1012
  • 300200Z 27006KT 1000 NSC 11/09 Q1013
  • 300130Z 28006KT 1000 NSC 12/10 Q1013

TAF TAF DTMB
Valid from the 30 at 00:00 until the 31 at 00:00 UTC


292300Z 3000/3024 28007KT 8000 SCT020 SCT030
BECMG 3009/3011 34010KT
PROB30
TEMPO 3012/3016 RA FEW030CB
BECMG 3016/3018 10004KT



MET'MAP, your aeronautical weather chart ! - Copyright ORBIFLY December 2007 - Disclaimer

ORBIFLY MET'MAP TEAM :

Programming & Development : Alexandra Zaïnal
Concept & original design : Baudouin d'Aumeries
Assistance for programming : Marc-Olivier Méhu
Technical & hardware support : Manuel Goepfert

Contact : metmap@orbifly.com




SOURCES & CREDITS :

   NOAA